sensor_id;sensor_type;location;lat;lon;timestamp;pressure;altitude;pressure_sealevel;temperature;humidity
21588;BME280;10956;48.878;13.316;2023-03-01T00:01:49;94823.47;;;-1.49;96.47
21588;BME280;10956;48.878;13.316;2023-03-01T00:04:14;94826.94;;;-1.42;95.46
21588;BME280;10956;48.878;13.316;2023-03-01T00:06:42;94824.63;;;-1.51;96.27
21588;BME280;10956;48.878;13.316;2023-03-01T00:09:08;94816.59;;;-1.56;96.62
21588;BME280;10956;48.878;13.316;2023-03-01T00:11:33;94827.72;;;-1.56;96.78
21588;BME280;10956;48.878;13.316;2023-03-01T00:14:00;94820.16;;;-1.57;97.41
21588;BME280;10956;48.878;13.316;2023-03-01T00:16:29;94828.25;;;-1.60;97.73
21588;BME280;10956;48.878;13.316;2023-03-01T00:18:56;94825.31;;;-1.57;97.25
21588;BME280;10956;48.878;13.316;2023-03-01T00:21:22;94828.88;;;-1.58;97.78
21588;BME280;10956;48.878;13.316;2023-03-01T00:23:48;94828.53;;;-1.55;97.76
21588;BME280;10956;48.878;13.316;2023-03-01T00:26:15;94823.88;;;-1.60;98.36
21588;BME280;10956;48.878;13.316;2023-03-01T00:28:41;94824.06;;;-1.61;97.79
21588;BME280;10956;48.878;13.316;2023-03-01T00:31:13;94819.81;;;-1.54;97.61
21588;BME280;10956;48.878;13.316;2023-03-01T00:33:39;94820.50;;;-1.60;97.74
21588;BME280;10956;48.878;13.316;2023-03-01T00:36:05;94822.47;;;-1.63;97.93
21588;BME280;10956;48.878;13.316;2023-03-01T00:38:34;94821.66;;;-1.63;98.25
21588;BME280;10956;48.878;13.316;2023-03-01T00:41:09;94821.84;;;-1.65;98.37
21588;BME280;10956;48.878;13.316;2023-03-01T00:43:35;94823.97;;;-1.68;98.71
21588;BME280;10956;48.878;13.316;2023-03-01T00:46:09;94823.16;;;-1.69;98.78
21588;BME280;10956;48.878;13.316;2023-03-01T00:48:36;94800.88;;;-1.70;98.47
21588;BME280;10956;48.878;13.316;2023-03-01T00:51:09;94816.03;;;-1.67;98.50
21588;BME280;10956;48.878;13.316;2023-03-01T00:53:35;94811.22;;;-1.70;98.75
21588;BME280;10956;48.878;13.316;2023-03-01T00:56:01;94812.81;;;-1.69;98.77
21588;BME280;10956;48.878;13.316;2023-03-01T00:58:27;94805.63;;;-1.58;96.52
21588;BME280;10956;48.878;13.316;2023-03-01T01:00:52;94793.06;;;-1.61;96.22
21588;BME280;10956;48.878;13.316;2023-03-01T01:03:18;94790.53;;;-1.70;96.93
21588;BME280;10956;48.878;13.316;2023-03-01T01:05:45;94785.28;;;-1.76;97.38
21588;BME280;10956;48.878;13.316;2023-03-01T01:08:11;94782.06;;;-1.78;97.31
21588;BME280;10956;48.878;13.316;2023-03-01T01:10:36;94780.00;;;-1.83;98.08
21588;BME280;10956;48.878;13.316;2023-03-01T01:13:02;94772.19;;;-1.75;97.70
21588;BME280;10956;48.878;13.316;2023-03-01T01:15:28;94772.53;;;-1.78;97.81
21588;BME280;10956;48.878;13.316;2023-03-01T01:17:53;94767.72;;;-1.81;98.11
21588;BME280;10956;48.878;13.316;2023-03-01T01:20:20;94762.56;;;-1.81;98.29
21588;BME280;10956;48.878;13.316;2023-03-01T01:22:45;94766.47;;;-1.85;98.57
21588;BME280;10956;48.878;13.316;2023-03-01T01:25:11;94762.63;;;-1.89;99.11
21588;BME280;10956;48.878;13.316;2023-03-01T01:27:36;94760.38;;;-1.92;99.58
21588;BME280;10956;48.878;13.316;2023-03-01T01:30:03;94754.94;;;-1.97;99.66
21588;BME280;10956;48.878;13.316;2023-03-01T01:32:28;94747.09;;;-2.04;99.97
21588;BME280;10956;48.878;13.316;2023-03-01T01:34:54;94759.09;;;-2.11;100.00
21588;BME280;10956;48.878;13.316;2023-03-01T01:37:19;94746.78;;;-2.23;100.00
21588;BME280;10956;48.878;13.316;2023-03-01T01:39:45;94751.38;;;-2.34;100.00
21588;BME280;10956;48.878;13.316;2023-03-01T01:42:16;94746.09;;;-2.40;100.00
21588;BME280;10956;48.878;13.316;2023-03-01T01:44:45;94742.44;;;-2.46;100.00
21588;BME280;10956;48.878;13.316;2023-03-01T01:47:17;94746.50;;;-2.51;100.00
21588;BME280;10956;48.878;13.316;2023-03-01T01:49:56;94746.66;;;-2.53;100.00
21588;BME280;10956;48.878;13.316;2023-03-01T01:52:27;94740.72;;;-2.53;100.00
21588;BME280;10956;48.878;13.316;2023-03-01T01:54:59;94738.66;;;-2.58;100.00
21588;BME280;10956;48.878;13.316;2023-03-01T01:57:33;94733.47;;;-2.58;100.00
21588;BME280;10956;48.878;13.316;2023-03-01T02:00:14;94732.84;;;-2.60;100.00
21588;BME280;10956;48.878;13.316;2023-03-01T02:02:40;94728.72;;;-2.69;100.00
21588;BME280;10956;48.878;13.316;2023-03-01T02:05:28;94731.63;;;-2.72;100.00
21588;BME280;10956;48.878;13.316;2023-03-01T02:07:58;94731.19;;;-2.76;100.00
21588;BME280;10956;48.878;13.316;2023-03-01T02:10:24;94731.19;;;-2.76;100.00
21588;BME280;10956;48.878;13.316;2023-03-01T02:12:51;94729.88;;;-2.72;100.00
21588;BME280;10956;48.878;13.316;2023-03-01T02:15:17;94725.84;;;-2.74;100.00
21588;BME280;10956;48.878;13.316;2023-03-01T02:17:42;94724.06;;;-2.74;100.00
21588;BME280;10956;48.878;13.316;2023-03-01T02:20:19;94716.50;;;-2.75;100.00
21588;BME280;10956;48.878;13.316;2023-03-01T02:22:48;94718.44;;;-2.77;100.00
21588;BME280;10956;48.878;13.316;2023-03-01T02:30:33;94712.06;;;-2.89;100.00
21588;BME280;10956;48.878;13.316;2023-03-01T02:33:00;94713.41;;;-2.94;100.00
21588;BME280;10956;48.878;13.316;2023-03-01T02:35:35;94714.06;;;-3.00;100.00
21588;BME280;10956;48.878;13.316;2023-03-01T02:38:03;94725.03;;;-2.98;100.00
21588;BME280;10956;48.878;13.316;2023-03-01T02:40:33;94711.97;;;-2.96;100.00
21588;BME280;10956;48.878;13.316;2023-03-01T02:42:59;94715.97;;;-2.94;100.00
21588;BME280;10956;48.878;13.316;2023-03-01T02:45:26;94713.09;;;-2.99;100.00
21588;BME280;10956;48.878;13.316;2023-03-01T02:47:57;94708.00;;;-3.07;100.00
21588;BME280;10956;48.878;13.316;2023-03-01T02:53:16;94707.06;;;-3.14;100.00
21588;BME280;10956;48.878;13.316;2023-03-01T02:55:45;94709.81;;;-3.15;100.00
21588;BME280;10956;48.878;13.316;2023-03-01T02:58:11;94699.31;;;-3.14;100.00
21588;BME280;10956;48.878;13.316;2023-03-01T03:00:39;94706.72;;;-3.11;100.00
21588;BME280;10956;48.878;13.316;2023-03-01T03:03:12;94708.66;;;-3.13;100.00
21588;BME280;10956;48.878;13.316;2023-03-01T03:05:39;94704.81;;;-3.17;100.00
21588;BME280;10956;48.878;13.316;2023-03-01T03:08:05;94703.88;;;-3.24;100.00
21588;BME280;10956;48.878;13.316;2023-03-01T03:10:35;94702.28;;;-3.25;100.00
21588;BME280;10956;48.878;13.316;2023-03-01T03:13:03;94706.13;;;-3.21;100.00
21588;BME280;10956;48.878;13.316;2023-03-01T03:15:30;94695.81;;;-3.21;100.00
21588;BME280;10956;48.878;13.316;2023-03-01T03:17:57;94695.81;;;-3.21;100.00
21588;BME280;10956;48.878;13.316;2023-03-01T03:20:24;94701.66;;;-3.27;100.00
21588;BME280;10956;48.878;13.316;2023-03-01T03:22:52;94699.53;;;-3.23;100.00
21588;BME280;10956;48.878;13.316;2023-03-01T03:25:18;94695.19;;;-3.23;100.00
21588;BME280;10956;48.878;13.316;2023-03-01T03:27:46;94698.22;;;-3.19;100.00
21588;BME280;10956;48.878;13.316;2023-03-01T03:30:17;94701.78;;;-3.20;100.00
21588;BME280;10956;48.878;13.316;2023-03-01T03:32:45;94700.97;;;-3.21;100.00
21588;BME280;10956;48.878;13.316;2023-03-01T03:35:18;94694.22;;;-3.22;100.00
21588;BME280;10956;48.878;13.316;2023-03-01T03:37:44;94691.63;;;-3.22;100.00
21588;BME280;10956;48.878;13.316;2023-03-01T03:40:36;94703.88;;;-3.24;100.00
21588;BME280;10956;48.878;13.316;2023-03-01T03:43:08;94698.25;;;-3.28;100.00
21588;BME280;10956;48.878;13.316;2023-03-01T03:45:35;94691.16;;;-3.26;100.00
21588;BME280;10956;48.878;13.316;2023-03-01T03:48:02;94695.34;;;-3.24;100.00
21588;BME280;10956;48.878;13.316;2023-03-01T03:50:28;94691.00;;;-3.24;100.00
21588;BME280;10956;48.878;13.316;2023-03-01T03:52:54;94698.56;;;-3.22;100.00
21588;BME280;10956;48.878;13.316;2023-03-01T03:55:19;94685.69;;;-3.22;100.00
21588;BME280;10956;48.878;13.316;2023-03-01T03:57:47;94683.28;;;-3.24;100.00
21588;BME280;10956;48.878;13.316;2023-03-01T04:00:18;94681.38;;;-3.30;100.00
21588;BME280;10956;48.878;13.316;2023-03-01T04:02:45;94682.38;;;-3.39;100.00
21588;BME280;10956;48.878;13.316;2023-03-01T04:05:13;94675.97;;;-3.43;100.00
21588;BME280;10956;48.878;13.316;2023-03-01T04:07:39;94681.91;;;-3.43;100.00
21588;BME280;10956;48.878;13.316;2023-03-01T04:10:09;94674.34;;;-3.44;100.00
21588;BME280;10956;48.878;13.316;2023-03-01T04:12:35;94673.38;;;-3.43;100.00
21588;BME280;10956;48.878;13.316;2023-03-01T04:15:02;94675.63;;;-3.40;100.00
21588;BME280;10956;48.878;13.316;2023-03-01T04:17:38;94672.06;;;-3.39;100.00
21588;BME280;10956;48.878;13.316;2023-03-01T04:20:05;94669.50;;;-3.39;100.00
21588;BME280;10956;48.878;13.316;2023-03-01T04:22:30;94675.63;;;-3.40;100.00
21588;BME280;10956;48.878;13.316;2023-03-01T04:24:57;94673.66;;;-3.38;100.00
21588;BME280;10956;48.878;13.316;2023-03-01T04:27:22;94680.78;;;-3.40;100.00
21588;BME280;10956;48.878;13.316;2023-03-01T04:29:47;94675.97;;;-3.43;100.00
21588;BME280;10956;48.878;13.316;2023-03-01T04:32:13;94670.78;;;-3.43;100.00
21588;BME280;10956;48.878;13.316;2023-03-01T04:34:41;94666.91;;;-3.39;100.00
21588;BME280;10956;48.878;13.316;2023-03-01T04:37:06;94667.25;;;-3.42;100.00
21588;BME280;10956;48.878;13.316;2023-03-01T04:39:32;94672.06;;;-3.39;100.00
21588;BME280;10956;48.878;13.316;2023-03-01T04:41:57;94664.97;;;-3.37;100.00
21588;BME280;10956;48.878;13.316;2023-03-01T04:44:23;94657.88;;;-3.35;100.00
21588;BME280;10956;48.878;13.316;2023-03-01T04:46:49;94651.13;;;-3.36;100.00
21588;BME280;10956;48.878;13.316;2023-03-01T04:49:15;94650.16;;;-3.35;100.00
21588;BME280;10956;48.878;13.316;2023-03-01T04:51:41;94645.97;;;-3.36;100.00
21588;BME280;10956;48.878;13.316;2023-03-01T04:54:06;94648.53;;;-3.36;100.00
21588;BME280;10956;48.878;13.316;2023-03-01T04:56:34;94649.50;;;-3.37;100.00
21588;BME280;10956;48.878;13.316;2023-03-01T04:58:59;94648.59;;;-3.44;100.00
21588;BME280;10956;48.878;13.316;2023-03-01T05:01:25;94648.63;;;-3.52;100.00
21588;BME280;10956;48.878;13.316;2023-03-01T05:03:51;94643.16;;;-3.58;100.00
21588;BME280;10956;48.878;13.316;2023-03-01T05:06:18;94645.44;;;-3.63;100.00
21588;BME280;10956;48.878;13.316;2023-03-01T05:08:44;94652.53;;;-3.65;100.00
21588;BME280;10956;48.878;13.316;2023-03-01T05:11:10;94653.69;;;-3.67;100.00
21588;BME280;10956;48.878;13.316;2023-03-01T05:13:37;94650.63;;;-3.71;100.00
21588;BME280;10956;48.878;13.316;2023-03-01T05:16:04;94655.94;;;-3.72;100.00
21588;BME280;10956;48.878;13.316;2023-03-01T05:18:31;94645.19;;;-3.76;100.00
21588;BME280;10956;48.878;13.316;2023-03-01T05:21:06;94649.53;;;-3.76;100.00
21588;BME280;10956;48.878;13.316;2023-03-01T05:23:33;94645.19;;;-3.76;100.00
21588;BME280;10956;48.878;13.316;2023-03-01T05:26:00;94643.25;;;-3.74;100.00
21588;BME280;10956;48.878;13.316;2023-03-01T05:28:26;94637.28;;;-3.74;100.00
21588;BME280;10956;48.878;13.316;2023-03-01T05:30:53;94633.44;;;-3.78;100.00
21588;BME280;10956;48.878;13.316;2023-03-01T05:33:19;94638.75;;;-3.80;100.00
21588;BME280;10956;48.878;13.316;2023-03-01T05:35:47;94641.84;;;-3.84;100.00
21588;BME280;10956;48.878;13.316;2023-03-01T05:38:14;94641.66;;;-3.83;100.00
21588;BME280;10956;48.878;13.316;2023-03-01T05:40:45;94642.94;;;-3.79;100.00
21588;BME280;10956;48.878;13.316;2023-03-01T05:43:12;94643.44;;;-3.83;100.00
21588;BME280;10956;48.878;13.316;2023-03-01T05:45:38;94652.59;;;-3.81;100.00
21588;BME280;10956;48.878;13.316;2023-03-01T05:48:05;94643.75;;;-3.78;100.00
21588;BME280;10956;48.878;13.316;2023-03-01T05:50:36;94648.72;;;-3.77;100.00
21588;BME280;10956;48.878;13.316;2023-03-01T05:53:04;94641.63;;;-3.75;100.00
21588;BME280;10956;48.878;13.316;2023-03-01T05:55:34;94645.00;;;-3.74;100.00
21588;BME280;10956;48.878;13.316;2023-03-01T05:58:01;94656.91;;;-3.73;100.00
21588;BME280;10956;48.878;13.316;2023-03-01T06:00:28;94646.63;;;-3.73;100.00
21588;BME280;10956;48.878;13.316;2023-03-01T06:02:54;94640.97;;;-3.69;100.00
21588;BME280;10956;48.878;13.316;2023-03-01T06:05:20;94641.25;;;-3.64;100.00
21588;BME280;10956;48.878;13.316;2023-03-01T06:07:46;94648.31;;;-3.58;100.00
21588;BME280;10956;48.878;13.316;2023-03-01T06:10:12;94636.72;;;-3.53;100.00
21588;BME280;10956;48.878;13.316;2023-03-01T06:12:39;94638.16;;;-3.51;100.00
21588;BME280;10956;48.878;13.316;2023-03-01T06:15:06;94638.94;;;-3.50;100.00
21588;BME280;10956;48.878;13.316;2023-03-01T06:17:34;94641.53;;;-3.50;100.00
21588;BME280;10956;48.878;13.316;2023-03-01T06:20:08;94639.41;;;-3.47;100.00
21588;BME280;10956;48.878;13.316;2023-03-01T06:22:33;94634.72;;;-3.43;100.00
21588;BME280;10956;48.878;13.316;2023-03-01T06:24:59;94647.28;;;-3.40;100.00
21588;BME280;10956;48.878;13.316;2023-03-01T06:27:24;94638.56;;;-3.39;100.00
21588;BME280;10956;48.878;13.316;2023-03-01T06:29:50;94640.34;;;-3.40;100.00
21588;BME280;10956;48.878;13.316;2023-03-01T06:32:15;94637.59;;;-3.38;100.00
21588;BME280;10956;48.878;13.316;2023-03-01T06:34:41;94644.66;;;-3.32;100.00
21588;BME280;10956;48.878;13.316;2023-03-01T06:37:07;94648.19;;;-3.33;100.00
21588;BME280;10956;48.878;13.316;2023-03-01T06:39:32;94643.34;;;-3.28;100.00
21588;BME280;10956;48.878;13.316;2023-03-01T06:41:58;94651.03;;;-3.20;100.00
21588;BME280;10956;48.878;13.316;2023-03-01T06:44:23;94641.97;;;-3.16;100.00
21588;BME280;10956;48.878;13.316;2023-03-01T06:46:49;94652.13;;;-3.14;100.00
21588;BME280;10956;48.878;13.316;2023-03-01T06:49:14;94655.16;;;-3.11;100.00
21588;BME280;10956;48.878;13.316;2023-03-01T06:51:41;94652.88;;;-3.06;100.00
21588;BME280;10956;48.878;13.316;2023-03-01T06:54:07;94649.31;;;-3.05;100.00
21588;BME280;10956;48.878;13.316;2023-03-01T06:56:32;94649.44;;;-2.98;100.00
21588;BME280;10956;48.878;13.316;2023-03-01T06:58:58;94648.63;;;-2.99;100.00
21588;BME280;10956;48.878;13.316;2023-03-01T07:01:24;94651.72;;;-3.03;100.00
21588;BME280;10956;48.878;13.316;2023-03-01T07:03:49;94644.97;;;-3.04;100.00
21588;BME280;10956;48.878;13.316;2023-03-01T07:06:15;94649.44;;;-2.98;100.00
21588;BME280;10956;48.878;13.316;2023-03-01T07:08:40;94641.66;;;-2.90;100.00
21588;BME280;10956;48.878;13.316;2023-03-01T07:11:06;94643.06;;;-2.87;100.00
21588;BME280;10956;48.878;13.316;2023-03-01T07:13:32;94646.81;;;-2.90;100.00
21588;BME280;10956;48.878;13.316;2023-03-01T07:15:57;94646.00;;;-2.90;100.00
21588;BME280;10956;48.878;13.316;2023-03-01T07:18:23;94645.94;;;-2.82;100.00
21588;BME280;10956;48.878;13.316;2023-03-01T07:20:49;94642.31;;;-2.73;100.00
21588;BME280;10956;48.878;13.316;2023-03-01T07:23:14;94637.44;;;-2.68;100.00
21588;BME280;10956;48.878;13.316;2023-03-01T07:25:40;94638.53;;;-2.63;100.00
21588;BME280;10956;48.878;13.316;2023-03-01T07:28:05;94640.25;;;-2.55;100.00
21588;BME280;10956;48.878;13.316;2023-03-01T07:30:31;94640.25;;;-2.55;100.00
21588;BME280;10956;48.878;13.316;2023-03-01T07:32:57;94638.63;;;-2.56;100.00
21588;BME280;10956;48.878;13.316;2023-03-01T07:35:25;94643.44;;;-2.53;100.00
21588;BME280;10956;48.878;13.316;2023-03-01T07:37:51;94643.56;;;-2.46;100.00
21588;BME280;10956;48.878;13.316;2023-03-01T07:40:16;94634.47;;;-2.42;100.00
21588;BME280;10956;48.878;13.316;2023-03-01T07:42:42;94636.19;;;-2.35;100.00
21588;BME280;10956;48.878;13.316;2023-03-01T07:45:08;94639.50;;;-2.26;100.00
21588;BME280;10956;48.878;13.316;2023-03-01T07:47:35;94639.59;;;-2.19;100.00
21588;BME280;10956;48.878;13.316;2023-03-01T07:50:00;94640.84;;;-2.15;100.00
21588;BME280;10956;48.878;13.316;2023-03-01T07:52:26;94642.09;;;-2.11;100.00
21588;BME280;10956;48.878;13.316;2023-03-01T07:54:52;94636.56;;;-2.08;100.00
21588;BME280;10956;48.878;13.316;2023-03-01T07:57:17;94630.34;;;-1.99;100.00
21588;BME280;10956;48.878;13.316;2023-03-01T07:59:43;94637.66;;;-1.88;100.00
21588;BME280;10956;48.878;13.316;2023-03-01T08:02:09;94635.78;;;-1.79;100.00
21588;BME280;10956;48.878;13.316;2023-03-01T08:04:35;94626.50;;;-1.74;100.00
21588;BME280;10956;48.878;13.316;2023-03-01T08:07:00;94629.63;;;-1.64;100.00
21588;BME280;10956;48.878;13.316;2023-03-01T08:09:26;94623.44;;;-1.48;99.58
21588;BME280;10956;48.878;13.316;2023-03-01T08:11:51;94630.19;;;-1.32;99.10
21588;BME280;10956;48.878;13.316;2023-03-01T08:14:17;94627.75;;;-1.19;98.65
21588;BME280;10956;48.878;13.316;2023-03-01T08:16:42;94617.53;;;-1.06;98.10
21588;BME280;10956;48.878;13.316;2023-03-01T08:19:10;94626.66;;;-0.88;97.58
21588;BME280;10956;48.878;13.316;2023-03-01T08:21:36;94622.59;;;-0.76;97.04
21588;BME280;10956;48.878;13.316;2023-03-01T08:24:03;94621.97;;;-0.57;96.52
21588;BME280;10956;48.878;13.316;2023-03-01T08:26:29;94623.69;;;-0.43;96.06
21588;BME280;10956;48.878;13.316;2023-03-01T08:28:55;94628.09;;;-0.37;95.37
21588;BME280;10956;48.878;13.316;2023-03-01T08:31:22;94627.81;;;-0.20;95.38
21588;BME280;10956;48.878;13.316;2023-03-01T08:33:50;94614.72;;;-0.12;94.94
21588;BME280;10956;48.878;13.316;2023-03-01T08:36:29;94618.00;;;0.03;94.67
21588;BME280;10956;48.878;13.316;2023-03-01T08:38:55;94618.84;;;0.10;94.30
21588;BME280;10956;48.878;13.316;2023-03-01T08:41:20;94613.28;;;0.13;94.21
21588;BME280;10956;48.878;13.316;2023-03-01T08:43:46;94611.38;;;0.28;94.49
21588;BME280;10956;48.878;13.316;2023-03-01T08:46:12;94605.41;;;0.35;94.16
21588;BME280;10956;48.878;13.316;2023-03-01T08:48:38;94595.50;;;0.45;94.12
21588;BME280;10956;48.878;13.316;2023-03-01T08:51:11;94597.31;;;0.51;93.91
21588;BME280;10956;48.878;13.316;2023-03-01T08:53:38;94593.16;;;0.63;93.66
21588;BME280;10956;48.878;13.316;2023-03-01T08:56:04;94597.56;;;0.69;93.18
21588;BME280;10956;48.878;13.316;2023-03-01T08:58:29;94599.19;;;0.77;93.06
21588;BME280;10956;48.878;13.316;2023-03-01T09:00:55;94585.84;;;0.80;93.05
21588;BME280;10956;48.878;13.316;2023-03-01T09:03:22;94589.44;;;0.85;93.34
21588;BME280;10956;48.878;13.316;2023-03-01T09:05:48;94587.66;;;0.92;93.28
21588;BME280;10956;48.878;13.316;2023-03-01T09:08:16;94588.09;;;1.03;93.38
21588;BME280;10956;48.878;13.316;2023-03-01T09:10:42;94590.09;;;1.07;93.68
21588;BME280;10956;48.878;13.316;2023-03-01T09:13:07;94590.28;;;1.19;93.46
21588;BME280;10956;48.878;13.316;2023-03-01T09:15:33;94586.91;;;1.25;93.16
21588;BME280;10956;48.878;13.316;2023-03-01T09:17:59;94584.91;;;1.27;93.34
21588;BME280;10956;48.878;13.316;2023-03-01T09:20:24;94582.91;;;1.29;93.63
21588;BME280;10956;48.878;13.316;2023-03-01T09:22:49;94587.31;;;1.35;93.56
21588;BME280;10956;48.878;13.316;2023-03-01T09:25:15;94588.53;;;1.39;94.08
21588;BME280;10956;48.878;13.316;2023-03-01T09:27:40;94580.94;;;1.44;93.98
21588;BME280;10956;48.878;13.316;2023-03-01T09:30:06;94588.72;;;1.51;94.00
21588;BME280;10956;48.878;13.316;2023-03-01T09:32:32;94582.72;;;1.64;93.96
21588;BME280;10956;48.878;13.316;2023-03-01T09:34:58;94575.31;;;1.74;93.29
21588;BME280;10956;48.878;13.316;2023-03-01T09:37:28;94563.72;;;1.76;93.45
21588;BME280;10956;48.878;13.316;2023-03-01T09:39:54;94570.13;;;1.80;93.47
21588;BME280;10956;48.878;13.316;2023-03-01T09:42:20;94566.50;;;1.88;93.13
21588;BME280;10956;48.878;13.316;2023-03-01T09:47:22;94559.31;;;1.90;93.56
21588;BME280;10956;48.878;13.316;2023-03-01T09:50:15;94564.28;;;1.91;93.81
21588;BME280;10956;48.878;13.316;2023-03-01T09:52:58;94549.31;;;1.93;93.77
21588;BME280;10956;48.878;13.316;2023-03-01T09:55:33;94546.88;;;2.05;93.86
21588;BME280;10956;48.878;13.316;2023-03-01T09:58:41;94544.47;;;2.10;93.64
21588;BME280;10956;48.878;13.316;2023-03-01T10:01:30;94533.06;;;2.11;93.77
21588;BME280;10956;48.878;13.316;2023-03-01T10:06:29;94539.56;;;2.34;93.00
21588;BME280;10956;48.878;13.316;2023-03-01T10:08:56;94536.75;;;2.42;92.71
21588;BME280;10956;48.878;13.316;2023-03-01T10:11:36;94530.31;;;2.51;92.98
21588;BME280;10956;48.878;13.316;2023-03-01T10:17:04;94523.03;;;2.66;92.20
21588;BME280;10956;48.878;13.316;2023-03-01T10:19:42;94519.34;;;2.80;91.98
21588;BME280;10956;48.878;13.316;2023-03-01T10:22:15;94512.06;;;2.89;91.04
21588;BME280;10956;48.878;13.316;2023-03-01T10:24:43;94518.44;;;2.93;91.17
21588;BME280;10956;48.878;13.316;2023-03-01T10:27:26;94508.22;;;2.98;91.31
21588;BME280;10956;48.878;13.316;2023-03-01T10:30:16;94511.56;;;3.05;91.38
21588;BME280;10956;48.878;13.316;2023-03-01T10:32:44;94500.94;;;3.07;91.52
21588;BME280;10956;48.878;13.316;2023-03-01T10:35:19;94500.69;;;3.15;91.45
21588;BME280;10956;48.878;13.316;2023-03-01T10:38:03;94503.00;;;3.23;91.59
21588;BME280;10956;48.878;13.316;2023-03-01T10:40:29;94495.03;;;3.18;91.73
21588;BME280;10956;48.878;13.316;2023-03-01T10:42:58;94482.91;;;3.30;91.85
21588;BME280;10956;48.878;13.316;2023-03-01T10:45:31;94485.63;;;3.42;91.38
21588;BME280;10956;48.878;13.316;2023-03-01T10:48:15;94483.13;;;3.53;91.30
21588;BME280;10956;48.878;13.316;2023-03-01T10:50:45;94474.94;;;3.50;91.72
21588;BME280;10956;48.878;13.316;2023-03-01T10:53:29;94481.03;;;3.62;91.62
21588;BME280;10956;48.878;13.316;2023-03-01T10:56:11;94471.13;;;3.71;91.57
21588;BME280;10956;48.878;13.316;2023-03-01T10:58:58;94468.88;;;3.74;91.42
21588;BME280;10956;48.878;13.316;2023-03-01T11:01:34;94477.78;;;3.85;91.02
21588;BME280;10956;48.878;13.316;2023-03-01T11:06:33;94465.75;;;4.02;90.30
21588;BME280;10956;48.878;13.316;2023-03-01T11:09:18;94472.94;;;4.07;89.87
21588;BME280;10956;48.878;13.316;2023-03-01T11:11:44;94467.63;;;4.13;90.02
21588;BME280;10956;48.878;13.316;2023-03-01T11:14:16;94463.44;;;4.12;89.95
21588;BME280;10956;48.878;13.316;2023-03-01T11:16:48;94459.50;;;4.21;89.88
21588;BME280;10956;48.878;13.316;2023-03-01T11:19:17;94451.81;;;4.27;89.85
21588;BME280;10956;48.878;13.316;2023-03-01T11:22:11;94444.13;;;4.32;89.85
21588;BME280;10956;48.878;13.316;2023-03-01T11:24:43;94440.06;;;4.36;88.77
21588;BME280;10956;48.878;13.316;2023-03-01T11:27:33;94438.75;;;4.45;88.93
21588;BME280;10956;48.878;13.316;2023-03-01T11:30:19;94427.63;;;4.49;88.72
21588;BME280;10956;48.878;13.316;2023-03-01T11:35:45;94431.66;;;4.64;88.01
21588;BME280;10956;48.878;13.316;2023-03-01T11:38:34;94421.56;;;4.67;87.92
21588;BME280;10956;48.878;13.316;2023-03-01T11:41:15;94415.00;;;4.76;87.38
21588;BME280;10956;48.878;13.316;2023-03-01T11:44:01;94402.53;;;4.78;88.15
21588;BME280;10956;48.878;13.316;2023-03-01T12:03:29;94399.59;;;5.10;86.72
21588;BME280;10956;48.878;13.316;2023-03-01T12:35:00;94378.25;;;5.36;86.97
21588;BME280;10956;48.878;13.316;2023-03-01T12:38:02;94368.34;;;5.38;86.71
21588;BME280;10956;48.878;13.316;2023-03-01T12:51:04;94361.06;;;5.64;86.59
21588;BME280;10956;48.878;13.316;2023-03-01T12:53:35;94357.19;;;5.66;85.63
21588;BME280;10956;48.878;13.316;2023-03-01T12:56:06;94355.25;;;5.62;85.50
21588;BME280;10956;48.878;13.316;2023-03-01T12:58:35;94357.50;;;5.70;85.27
21588;BME280;10956;48.878;13.316;2023-03-01T13:04:16;94366.50;;;5.62;86.06
21588;BME280;10956;48.878;13.316;2023-03-01T13:12:01;94376.72;;;5.64;85.99
21588;BME280;10956;48.878;13.316;2023-03-01T13:14:34;94373.19;;;5.70;85.54
21588;BME280;10956;48.878;13.316;2023-03-01T13:17:00;94363.78;;;5.69;85.56
21588;BME280;10956;48.878;13.316;2023-03-01T13:19:29;94371.75;;;5.62;86.64
21588;BME280;10956;48.878;13.316;2023-03-01T13:21:57;94370.94;;;5.62;86.79
21588;BME280;10956;48.878;13.316;2023-03-01T13:24:29;94378.78;;;5.62;86.07
21588;BME280;10956;48.878;13.316;2023-03-01T13:29:46;94370.59;;;5.70;85.72
21588;BME280;10956;48.878;13.316;2023-03-01T13:32:31;94377.31;;;5.66;86.02
21588;BME280;10956;48.878;13.316;2023-03-01T13:37:51;94377.31;;;5.66;85.83
21588;BME280;10956;48.878;13.316;2023-03-01T13:42:53;94384.56;;;5.64;85.96
21588;BME280;10956;48.878;13.316;2023-03-01T13:47:51;94376.84;;;5.57;85.25
21588;BME280;10956;48.878;13.316;2023-03-01T13:50:22;94379.81;;;5.61;84.26
21588;BME280;10956;48.878;13.316;2023-03-01T13:52:50;94393.22;;;5.53;84.44
21588;BME280;10956;48.878;13.316;2023-03-01T13:55:21;94378.47;;;5.46;85.75
21588;BME280;10956;48.878;13.316;2023-03-01T13:57:53;94376.41;;;5.48;85.71
21588;BME280;10956;48.878;13.316;2023-03-01T14:00:38;94382.22;;;5.50;86.44
21588;BME280;10956;48.878;13.316;2023-03-01T14:05:37;94389.59;;;5.54;86.53
21588;BME280;10956;48.878;13.316;2023-03-01T14:08:04;94372.31;;;5.53;86.64
21588;BME280;10956;48.878;13.316;2023-03-01T14:13:39;94363.91;;;5.50;86.26
21588;BME280;10956;48.878;13.316;2023-03-01T14:19:05;94388.91;;;5.46;86.56
21588;BME280;10956;48.878;13.316;2023-03-01T14:21:35;94381.53;;;5.43;87.28
21588;BME280;10956;48.878;13.316;2023-03-01T14:24:01;94372.91;;;5.43;86.63
21588;BME280;10956;48.878;13.316;2023-03-01T14:26:27;94375.75;;;5.41;86.53
21588;BME280;10956;48.878;13.316;2023-03-01T14:28:52;94377.78;;;5.39;86.45
21588;BME280;10956;48.878;13.316;2023-03-01T14:31:38;94369.84;;;5.34;87.07
21588;BME280;10956;48.878;13.316;2023-03-01T14:34:05;94376.09;;;5.33;87.28
21588;BME280;10956;48.878;13.316;2023-03-01T14:36:33;94379.84;;;5.37;86.03
21588;BME280;10956;48.878;13.316;2023-03-01T14:38:59;94367.78;;;5.36;86.66
21588;BME280;10956;48.878;13.316;2023-03-01T14:41:32;94374.28;;;5.34;87.34
21588;BME280;10956;48.878;13.316;2023-03-01T14:44:02;94359.84;;;5.31;87.10